Terminal Aerodrome Forecast
Issued by NWS

Home | Current Version | Previous Version | Text Only | Print | Product List | Glossary On
Versions: 1 2 3 4 5 6 7 8 9 10 11 12 13 14 15 16 17 18 19 20 21 22 23 24 25 26 27 28
000
FTPA31 PHFO 032100 AAA
TAFPPG
TAF AMD
NSTU 032125Z 0321/0418 11017KT P6SM VCSH SCT015 BKN040
      TEMPO 0321/0322 09020G30KT 3SM SHRA BR BKN035=

USA.gov is the U.S. government's official web portal to all federal, state and local government web resources and services.